createdAt,value
2018-04-28T00:00:11.012Z,100322.67
2018-04-28T00:03:13.545Z,100328.44
2018-04-28T00:06:16.089Z,100321.27
2018-04-28T00:09:18.693Z,100314.51
2018-04-28T00:12:21.273Z,100317.20
2018-04-28T00:15:23.819Z,100306.52
2018-04-28T00:18:26.472Z,100306.91
2018-04-28T00:21:35.357Z,100307.42
2018-04-28T00:24:39.637Z,100306.64
2018-04-28T00:27:53.646Z,100303.19
2018-04-28T00:31:13.706Z,100296.86
2018-04-28T00:34:16.213Z,100297.77
2018-04-28T00:37:24.544Z,100293.41
2018-04-28T00:40:32.807Z,100295.81
2018-04-28T00:43:35.292Z,100296.78
2018-04-28T00:46:37.795Z,100301.27
2018-04-28T00:49:44.169Z,100296.95
2018-04-28T00:52:46.752Z,100290.41
2018-04-28T00:55:50.600Z,100295.61
2018-04-28T00:59:04.567Z,100291.25
2018-04-28T01:02:09.689Z,100294.17
2018-04-28T01:05:12.248Z,100290.18
2018-04-28T01:08:14.771Z,100289.94
2018-04-28T01:11:19.860Z,100289.97
2018-04-28T01:14:34.142Z,100289.23
2018-04-28T01:17:36.632Z,100292.21
2018-04-28T01:20:43.363Z,100292.72
2018-04-28T01:23:46.563Z,100294.73
2018-04-28T01:30:46.387Z,100290.84
2018-04-28T01:34:01.158Z,100290.50
2018-04-28T01:37:07.336Z,100279.39
2018-04-28T01:40:13.416Z,100280.29
2018-04-28T01:43:26.690Z,100280.42
2018-04-28T01:46:30.757Z,100278.34
2018-04-28T01:49:48.913Z,100280.36
2018-04-28T01:52:51.518Z,100281.30
2018-04-28T01:55:55.678Z,100279.16
2018-04-28T01:58:58.205Z,100281.80
2018-04-28T02:02:08.210Z,100289.76
2018-04-28T02:08:46.997Z,100288.95
2018-04-28T02:12:08.284Z,100287.72
2018-04-28T02:15:19.511Z,100283.63
2018-04-28T02:22:21.776Z,100277.72
2018-04-28T02:25:29.747Z,100292.73
2018-04-28T02:28:45.878Z,100289.59
2018-04-28T02:32:03.331Z,100285.81
2018-04-28T02:35:33.326Z,100280.31
2018-04-28T02:38:35.843Z,100284.77
2018-04-28T02:45:15.148Z,100287.48
2018-04-28T02:48:25.352Z,100289.09
2018-04-28T02:51:34.389Z,100282.57
2018-04-28T02:58:34.336Z,100282.10
2018-04-28T03:01:43.381Z,100280.38
2018-04-28T03:08:19.033Z,100288.34
2018-04-28T03:11:21.556Z,100285.54
2018-04-28T03:14:24.064Z,100283.82
2018-04-28T03:17:33.247Z,100278.59
2018-04-28T03:20:35.740Z,100287.56
2018-04-28T03:23:38.237Z,100284.39
2018-04-28T03:26:46.074Z,100289.88
2018-04-28T03:29:52.816Z,100291.27
2018-04-28T03:32:57.637Z,100294.69
2018-04-28T03:36:02.760Z,100297.86
2018-04-28T03:39:16.569Z,100300.92
2018-04-28T03:42:34.832Z,100302.55
2018-04-28T03:45:38.095Z,100306.76
2018-04-28T03:48:45.095Z,100304.10
2018-04-28T03:51:50.941Z,100304.13
2018-04-28T03:54:57.166Z,100303.74
2018-04-28T03:58:11.468Z,100312.55
2018-04-28T04:01:25.801Z,100306.63
2018-04-28T04:08:16.272Z,100318.95
2018-04-28T04:15:15.164Z,100320.12
2018-04-28T04:18:29.463Z,100319.05
2018-04-28T04:21:32.720Z,100324.25
2018-04-28T04:24:41.971Z,100320.62
2018-04-28T04:27:46.210Z,100324.06
2018-04-28T04:30:54.477Z,100328.98
2018-04-28T04:37:34.367Z,100334.94
2018-04-28T04:44:22.683Z,100336.00
2018-04-28T04:47:31.618Z,100338.56
2018-04-28T04:50:36.924Z,100344.30
2018-04-28T04:53:42.027Z,100345.03
2018-04-28T04:56:53.160Z,100344.71
2018-04-28T05:03:35.113Z,100352.70
2018-04-28T05:06:38.449Z,100347.56
2018-04-28T05:09:47.764Z,100356.05
2018-04-28T05:16:29.373Z,100360.92
2018-04-28T05:19:55.494Z,100366.30
2018-04-28T05:23:02.816Z,100363.49
2018-04-28T05:29:47.111Z,100366.82
2018-04-28T05:36:46.080Z,100384.46
2018-04-28T05:40:07.054Z,100388.76
2018-04-28T05:46:52.825Z,100399.23
2018-04-28T05:53:37.415Z,100400.50
2018-04-28T05:57:03.521Z,100408.41
2018-04-28T06:00:20.907Z,100407.94
2018-04-28T06:03:32.098Z,100400.61
2018-04-28T06:10:18.878Z,100410.89
2018-04-28T06:13:28.136Z,100409.85
2018-04-28T06:16:32.402Z,100415.83
2018-04-28T06:19:46.615Z,100419.07
2018-04-28T06:22:50.166Z,100417.44
2018-04-28T06:25:52.679Z,100422.73
2018-04-28T06:28:55.220Z,100428.66
2018-04-28T06:31:57.748Z,100436.03
2018-04-28T06:35:00.302Z,100442.56
2018-04-28T06:38:02.837Z,100448.88
2018-04-28T06:41:05.349Z,100442.08
2018-04-28T06:44:07.885Z,100447.50
2018-04-28T06:47:10.400Z,100453.57
2018-04-28T06:50:12.930Z,100453.90
2018-04-28T06:53:15.504Z,100454.33
2018-04-28T06:56:18.044Z,100454.34
2018-04-28T06:59:20.613Z,100467.95
2018-04-28T07:02:23.134Z,100467.61
2018-04-28T07:05:25.677Z,100463.97
2018-04-28T07:08:28.196Z,100470.44
2018-04-28T07:11:30.736Z,100470.52
2018-04-28T07:14:33.348Z,100464.80
2018-04-28T07:17:35.880Z,100472.03
2018-04-28T07:20:38.447Z,100475.66
2018-04-28T07:23:40.995Z,100473.71
2018-04-28T07:26:43.545Z,100467.88
2018-04-28T07:29:46.076Z,100458.91
2018-04-28T07:32:48.612Z,100457.97
2018-04-28T07:35:51.314Z,100458.02
2018-04-28T07:38:53.891Z,100461.92
2018-04-28T07:41:56.448Z,100462.30
2018-04-28T07:44:58.977Z,100465.36
2018-04-28T07:48:01.541Z,100469.58
2018-04-28T07:51:04.080Z,100468.26
2018-04-28T07:54:06.681Z,100465.28
2018-04-28T07:57:09.176Z,100463.41
2018-04-28T08:00:11.696Z,100456.95
2018-04-28T08:03:14.271Z,100463.87
2018-04-28T08:06:16.836Z,100465.36
2018-04-28T08:09:19.461Z,100466.99
2018-04-28T08:12:22.305Z,100468.73
2018-04-28T08:15:24.909Z,100469.53
2018-04-28T08:18:27.468Z,100462.84
2018-04-28T08:21:30.037Z,100466.09
2018-04-28T08:24:34.180Z,100468.93
2018-04-28T08:27:36.816Z,100467.53
2018-04-28T08:30:40.077Z,100469.58
2018-04-28T08:33:43.119Z,100470.24
2018-04-28T08:36:45.715Z,100475.73
2018-04-28T08:39:48.255Z,100463.27
2018-04-28T08:42:50.750Z,100475.78
2018-04-28T08:45:53.279Z,100476.33
2018-04-28T08:48:55.823Z,100472.84
2018-04-28T08:51:59.065Z,100469.98
2018-04-28T08:55:01.632Z,100467.41
2018-04-28T08:58:05.062Z,100465.59
2018-04-28T09:01:07.587Z,100474.09
2018-04-28T09:04:10.210Z,100470.80
2018-04-28T09:07:39.653Z,100476.88
2018-04-28T09:10:42.214Z,100474.35
2018-04-28T09:13:44.794Z,100471.09
2018-04-28T09:16:47.406Z,100474.18
2018-04-28T09:19:50.066Z,100476.87
2018-04-28T09:22:53.491Z,100479.46
2018-04-28T09:25:56.081Z,100482.38
2018-04-28T09:28:58.767Z,100469.92
2018-04-28T09:32:01.467Z,100471.66
2018-04-28T09:35:04.030Z,100467.67
2018-04-28T09:38:06.701Z,100471.83
2018-04-28T09:41:09.255Z,100470.95
2018-04-28T09:44:11.820Z,100468.70
2018-04-28T09:47:14.406Z,100472.80
2018-04-28T09:50:16.921Z,100466.20
2018-04-28T09:53:19.747Z,100473.12
2018-04-28T09:56:22.422Z,100465.92
2018-04-28T09:59:25.088Z,100465.53
2018-04-28T10:02:27.773Z,100473.11
2018-04-28T10:05:30.963Z,100477.11
2018-04-28T10:08:33.610Z,100471.64
2018-04-28T10:11:36.204Z,100470.47
2018-04-28T10:14:38.843Z,100472.89
2018-04-28T10:17:41.357Z,100474.37
2018-04-28T10:20:43.928Z,100470.94
2018-04-28T10:23:46.480Z,100470.95
2018-04-28T10:26:49.043Z,100474.47
2018-04-28T10:29:51.564Z,100456.44
2018-04-28T10:32:54.205Z,100463.89
2018-04-28T10:35:56.739Z,100466.25
2018-04-28T10:38:59.310Z,100465.14
2018-04-28T10:42:01.842Z,100464.66
2018-04-28T10:45:04.390Z,100458.50
2018-04-28T10:48:06.887Z,100467.35
2018-04-28T10:51:09.403Z,100468.90
2018-04-28T10:54:11.992Z,100455.52
2018-04-28T10:57:14.500Z,100466.87
2018-04-28T11:00:17.042Z,100464.44
2018-04-28T11:03:23.255Z,100469.48
2018-04-28T11:06:25.896Z,100465.91
2018-04-28T11:09:28.410Z,100467.66
2018-04-28T11:12:30.921Z,100453.48
2018-04-28T11:15:34.319Z,100459.25
2018-04-28T11:18:36.915Z,100460.41
2018-04-28T11:21:39.424Z,100465.38
2018-04-28T11:24:42.064Z,100455.55
2018-04-28T11:27:44.576Z,100451.50
2018-04-28T11:30:47.119Z,100454.92
2018-04-28T11:33:49.679Z,100452.41
2018-04-28T11:36:52.287Z,100452.55
2018-04-28T11:39:54.894Z,100450.34
2018-04-28T11:42:57.450Z,100443.28
2018-04-28T11:46:00.063Z,100449.59
2018-04-28T11:49:02.641Z,100443.97
2018-04-28T11:52:05.180Z,100443.38
2018-04-28T11:55:07.780Z,100441.95
2018-04-28T11:58:10.328Z,100452.37
2018-04-28T12:01:12.870Z,100446.22
2018-04-28T12:04:15.424Z,100437.30
2018-04-28T12:07:17.997Z,100442.05
2018-04-28T12:10:20.590Z,100437.03
2018-04-28T12:13:23.139Z,100448.13
2018-04-28T12:16:25.695Z,100439.12
2018-04-28T12:19:28.219Z,100450.02
2018-04-28T12:22:30.741Z,100439.56
2018-04-28T12:25:33.288Z,100429.11
2018-04-28T12:28:35.815Z,100432.56
2018-04-28T12:31:38.555Z,100425.63
2018-04-28T12:34:41.175Z,100427.56
2018-04-28T12:37:43.698Z,100424.98
2018-04-28T12:40:46.232Z,100424.56
2018-04-28T12:43:48.754Z,100418.19
2018-04-28T12:46:51.279Z,100421.56
2018-04-28T12:49:53.790Z,100420.23
2018-04-28T12:52:56.285Z,100446.22
2018-04-28T12:55:58.796Z,100414.30
2018-04-28T12:59:01.361Z,100419.77
2018-04-28T13:02:03.941Z,100427.61
2018-04-28T13:05:06.489Z,100424.60
2018-04-28T13:08:09.010Z,100418.12
2018-04-28T13:11:11.568Z,100409.54
2018-04-28T13:14:14.128Z,100423.53
2018-04-28T13:17:16.620Z,100416.66
2018-04-28T13:20:19.158Z,100415.84
2018-04-28T13:23:21.682Z,100418.19
2018-04-28T13:26:24.232Z,100409.51
2018-04-28T13:29:26.764Z,100394.20
2018-04-28T13:32:29.381Z,100393.52
2018-04-28T13:35:32.236Z,100384.77
2018-04-28T13:38:34.806Z,100377.50
2018-04-28T13:41:37.923Z,100374.45
2018-04-28T13:44:41.251Z,100372.55
2018-04-28T13:47:43.770Z,100374.91
2018-04-28T13:50:46.323Z,100383.56
2018-04-28T13:53:48.831Z,100374.29
2018-04-28T13:56:51.322Z,100381.16
2018-04-28T13:59:53.869Z,100378.56
2018-04-28T14:02:56.398Z,100380.88
2018-04-28T14:05:58.996Z,100380.03
2018-04-28T14:09:01.588Z,100385.18
2018-04-28T14:12:04.107Z,100373.55
2018-04-28T14:15:06.633Z,100366.23
2018-04-28T14:18:09.148Z,100385.44
2018-04-28T14:21:11.706Z,100367.45
2018-04-28T14:24:14.249Z,100373.90
2018-04-28T14:27:16.834Z,100357.86
2018-04-28T14:30:19.409Z,100361.22
2018-04-28T14:33:21.963Z,100364.62
2018-04-28T14:36:24.488Z,100367.91
2018-04-28T14:39:27.072Z,100360.83
2018-04-28T14:42:40.319Z,100363.64
2018-04-28T14:45:42.850Z,100355.27
2018-04-28T14:48:45.375Z,100361.03
2018-04-28T14:51:47.952Z,100363.67
2018-04-28T14:54:50.481Z,100377.89
2018-04-28T14:57:53.045Z,100370.83
2018-04-28T15:00:55.591Z,100368.95
2018-04-28T15:03:58.149Z,100369.69
2018-04-28T15:07:00.751Z,100369.75
2018-04-28T15:10:03.325Z,100375.95
2018-04-28T15:13:05.891Z,100368.95
2018-04-28T15:16:08.403Z,100372.91
2018-04-28T15:19:10.946Z,100372.97
2018-04-28T15:22:13.514Z,100370.19
2018-04-28T15:25:16.077Z,100379.96
2018-04-28T15:28:18.637Z,100380.52
2018-04-28T15:31:21.237Z,100377.20
2018-04-28T15:34:23.762Z,100378.77
2018-04-28T15:37:26.331Z,100371.19
2018-04-28T15:40:28.899Z,100379.00
2018-04-28T15:43:31.477Z,100384.23
2018-04-28T15:46:33.993Z,100381.81
2018-04-28T15:49:36.505Z,100376.88
2018-04-28T15:52:39.022Z,100376.02
2018-04-28T15:55:41.624Z,100380.64
2018-04-28T15:58:44.174Z,100371.53
2018-04-28T16:01:46.725Z,100378.33
2018-04-28T16:04:49.739Z,100367.55
2018-04-28T16:07:52.296Z,100371.38
2018-04-28T16:10:54.948Z,100361.64
2018-04-28T16:13:57.429Z,100368.16
2018-04-28T16:17:00.045Z,100369.97
2018-04-28T16:20:02.545Z,100365.75
2018-04-28T16:23:05.102Z,100367.83
2018-04-28T16:26:07.671Z,100370.59
2018-04-28T16:29:10.193Z,100385.10
2018-04-28T16:32:12.688Z,100378.30
2018-04-28T16:35:15.274Z,100375.68
2018-04-28T16:38:17.815Z,100378.07
2018-04-28T16:41:20.338Z,100379.23
2018-04-28T16:44:22.874Z,100378.80
2018-04-28T16:47:25.427Z,100377.92
2018-04-28T16:50:27.923Z,100382.14
2018-04-28T16:53:30.594Z,100381.69
2018-04-28T16:56:33.194Z,100384.84
2018-04-28T16:59:35.749Z,100383.78
2018-04-28T17:02:38.330Z,100384.73
2018-04-28T17:05:40.843Z,100387.56
2018-04-28T17:08:43.413Z,100389.58
2018-04-28T17:11:45.997Z,100387.84
2018-04-28T17:14:48.504Z,100397.95
2018-04-28T17:17:54.499Z,100389.66
2018-04-28T17:20:57.015Z,100398.00
2018-04-28T17:23:59.615Z,100396.56
2018-04-28T17:27:02.301Z,100395.28
2018-04-28T17:30:04.989Z,100398.27
2018-04-28T17:33:07.619Z,100396.73
2018-04-28T17:36:10.618Z,100405.80
2018-04-28T17:39:13.161Z,100404.61
2018-04-28T17:42:15.681Z,100399.03
2018-04-28T17:45:18.212Z,100409.09
2018-04-28T17:48:21.357Z,100400.68
2018-04-28T17:51:23.960Z,100404.27
2018-04-28T17:54:26.627Z,100403.94
2018-04-28T17:57:29.286Z,100411.41
2018-04-28T18:00:31.835Z,100406.84
2018-04-28T18:03:34.422Z,100404.89
2018-04-28T18:06:37.801Z,100403.81
2018-04-28T18:09:41.030Z,100409.13
2018-04-28T18:12:43.600Z,100410.66
2018-04-28T18:15:46.217Z,100409.23
2018-04-28T18:18:48.948Z,100410.92
2018-04-28T18:21:51.515Z,100407.18
2018-04-28T18:24:54.139Z,100411.61
2018-04-28T18:27:56.676Z,100433.06
2018-04-28T18:30:59.240Z,100435.94
2018-04-28T18:34:01.898Z,100440.59
2018-04-28T18:37:04.489Z,100438.56
2018-04-28T18:40:07.126Z,100446.41
2018-04-28T18:43:09.782Z,100443.95
2018-04-28T18:46:13.376Z,100449.41
2018-04-28T18:49:15.987Z,100450.04
2018-04-28T18:52:18.659Z,100444.36
2018-04-28T18:55:21.346Z,100441.06
2018-04-28T18:58:23.922Z,100437.58
2018-04-28T19:01:26.428Z,100441.36
2018-04-28T19:04:28.982Z,100447.00
2018-04-28T19:07:31.599Z,100453.26
2018-04-28T19:10:34.147Z,100462.91
2018-04-28T19:13:36.840Z,100459.44
2018-04-28T19:16:39.375Z,100456.97
2018-04-28T19:19:41.999Z,100465.36
2018-04-28T19:22:44.714Z,100474.73
2018-04-28T19:25:47.354Z,100478.69
2018-04-28T19:28:49.883Z,100476.29
2018-04-28T19:31:52.406Z,100480.55
2018-04-28T19:34:55.058Z,100490.36
2018-04-28T19:37:57.569Z,100481.41
2018-04-28T19:41:00.632Z,100492.08
2018-04-28T19:44:03.194Z,100486.36
2018-04-28T19:47:05.710Z,100482.40
2018-04-28T19:50:08.284Z,100491.34
2018-04-28T19:53:10.889Z,100496.17
2018-04-28T19:56:13.402Z,100492.55
2018-04-28T19:59:15.988Z,100488.41
2018-04-28T20:02:18.535Z,100487.42
2018-04-28T20:05:21.154Z,100482.97
2018-04-28T20:08:23.740Z,100499.06
2018-04-28T20:11:26.288Z,100501.83
2018-04-28T20:14:28.872Z,100491.66
2018-04-28T20:17:31.462Z,100491.84
2018-04-28T20:20:34.047Z,100490.09
2018-04-28T20:23:48.230Z,100492.36
2018-04-28T20:26:50.815Z,100499.30
2018-04-28T20:29:53.365Z,100499.06
2018-04-28T20:32:55.918Z,100493.23
2018-04-28T20:35:58.514Z,100498.63
2018-04-28T20:39:01.134Z,100497.82
2018-04-28T20:42:03.775Z,100505.89
2018-04-28T20:45:06.379Z,100500.63
2018-04-28T20:48:10.074Z,100507.64
2018-04-28T20:51:13.243Z,100499.88
2018-04-28T20:54:15.881Z,100509.39
2018-04-28T20:57:18.444Z,100513.04
2018-04-28T21:00:22.249Z,100504.16
2018-04-28T21:03:24.765Z,100503.89
2018-04-28T21:06:27.309Z,100503.84
2018-04-28T21:09:29.872Z,100495.96
2018-04-28T21:12:32.427Z,100502.27
2018-04-28T21:15:34.966Z,100508.97
2018-04-28T21:18:37.473Z,100514.13
2018-04-28T21:21:39.987Z,100518.66
2018-04-28T21:24:42.514Z,100519.33
2018-04-28T21:27:45.095Z,100513.96
2018-04-28T21:30:47.744Z,100501.91
2018-04-28T21:33:50.319Z,100498.76
2018-04-28T21:36:52.839Z,100498.36
2018-04-28T21:39:55.387Z,100497.47
2018-04-28T21:42:57.947Z,100508.72
2018-04-28T21:46:00.515Z,100514.16
2018-04-28T21:49:03.089Z,100517.69
2018-04-28T21:52:05.624Z,100523.98
2018-04-28T21:55:08.197Z,100521.47
2018-04-28T21:58:10.801Z,100520.12
2018-04-28T22:01:13.437Z,100515.51
2018-04-28T22:04:15.989Z,100515.14
2018-04-28T22:07:18.560Z,100521.73
2018-04-28T22:10:21.197Z,100509.98
2018-04-28T22:13:23.788Z,100518.39
2018-04-28T22:16:27.102Z,100509.16
2018-04-28T22:19:29.666Z,100507.18
2018-04-28T22:22:32.407Z,100503.78
2018-04-28T22:25:34.913Z,100502.95
2018-04-28T22:28:37.571Z,100502.52
2018-04-28T22:31:40.202Z,100513.94
2018-04-28T22:34:42.748Z,100503.97
2018-04-28T22:37:45.330Z,100513.36
2018-04-28T22:40:47.899Z,100510.94
2018-04-28T22:43:50.458Z,100512.08
2018-04-28T22:46:53.054Z,100507.00
2018-04-28T22:49:55.641Z,100504.64
2018-04-28T22:52:58.194Z,100499.88
2018-04-28T22:56:00.738Z,100505.69
2018-04-28T22:59:03.257Z,100508.73
2018-04-28T23:02:05.779Z,100506.47
2018-04-28T23:05:08.330Z,100504.83
2018-04-28T23:08:10.887Z,100496.08
2018-04-28T23:11:13.413Z,100499.00
2018-04-28T23:14:15.909Z,100500.77
2018-04-28T23:17:18.468Z,100499.02
2018-04-28T23:20:20.962Z,100500.76
2018-04-28T23:23:23.524Z,100505.53
2018-04-28T23:26:26.061Z,100488.30
2018-04-28T23:29:28.562Z,100490.88
2018-04-28T23:32:31.134Z,100491.37
2018-04-28T23:35:33.728Z,100481.66
2018-04-28T23:38:36.286Z,100478.80
2018-04-28T23:41:38.824Z,100486.02
2018-04-28T23:44:41.365Z,100485.30
2018-04-28T23:47:43.888Z,100483.12
2018-04-28T23:50:46.369Z,100484.81
2018-04-28T23:53:48.877Z,100473.84
2018-04-28T23:56:51.396Z,100474.48
2018-04-28T23:59:53.890Z,100471.85
